Time;durP1;ratioP1;P1;durP2;ratioP2;P2;SDS_P1;SDS_P2;PMS_P1;PMS_P2;Temp;Humidity;BMP_temperature;BMP_pressure;BME280_temperature;BME280_humidity;BME280_pressure;Samples;Min_cycle;Max_cycle;Signal;HPM_P1;HPM_P2
2021/08/27 00:02:11;;;;;;;13.70;4.80;;;;;;;12.92;72.14;98289.27;112420;1203;111092;-72
2021/08/27 00:04:39;;;;;;;10.50;4.60;;;;;;;12.92;72.06;98295.48;112467;1204;97595;-71
2021/08/27 00:07:07;;;;;;;9.80;3.90;;;;;;;12.88;71.93;98298.61;112418;1203;107085;-69
2021/08/27 00:09:35;;;;;;;9.90;4.20;;;;;;;12.82;71.99;98302.69;112176;1205;97661;-69
2021/08/27 00:12:04;;;;;;;11.00;4.80;;;;;;;12.77;72.04;98304.55;112313;1204;97623;-71
2021/08/27 00:14:32;;;;;;;10.90;3.90;;;;;;;12.74;72.04;98303.80;112383;1204;111066;-69
2021/08/27 00:17:00;;;;;;;18.90;4.80;;;;;;;12.71;72.19;98299.48;112302;1200;98265;-70
2021/08/27 00:19:28;;;;;;;12.10;4.20;;;;;;;12.70;72.17;98302.36;112300;1198;106036;-70
2021/08/27 00:21:56;;;;;;;9.30;3.90;;;;;;;12.67;72.15;98299.67;112389;1204;97561;-71
2021/08/27 00:24:23;;;;;;;10.60;3.70;;;;;;;12.63;72.15;98300.14;112283;1195;97738;-69
2021/08/27 00:26:51;;;;;;;9.40;4.20;;;;;;;12.61;72.03;98297.57;112257;1205;111588;-69
2021/08/27 00:29:19;;;;;;;11.00;4.20;;;;;;;12.53;71.99;98297.23;112316;1204;95898;-70
2021/08/27 00:31:47;;;;;;;8.90;3.90;;;;;;;12.46;72.24;98302.28;112219;1204;108038;-69
2021/08/27 00:34:15;;;;;;;11.00;4.10;;;;;;;12.44;72.40;98301.43;112754;1200;97646;-67
2021/08/27 00:36:42;;;;;;;12.20;4.40;;;;;;;12.44;72.46;98305.67;112231;1203;97542;-70
2021/08/27 00:39:10;;;;;;;10.00;4.40;;;;;;;12.45;72.44;98306.52;112359;1204;111242;-70
2021/08/27 00:41:38;;;;;;;11.20;4.30;;;;;;;12.43;72.42;98303.46;112401;1204;97642;-71
2021/08/27 00:44:06;;;;;;;12.40;4.50;;;;;;;12.42;72.48;98302.82;112369;1205;107420;-69
2021/08/27 00:46:34;;;;;;;11.40;4.20;;;;;;;12.43;72.52;98302.20;112433;1204;97617;-72
2021/08/27 00:49:01;;;;;;;9.70;3.50;;;;;;;12.43;72.42;98299.59;112447;1203;96475;-70
2021/08/27 00:51:32;;;;;;;12.10;4.80;;;;;;;12.40;72.44;98296.80;112354;1202;111834;-71
2021/08/27 00:54:04;;;;;;;8.40;3.80;;;;;;;12.39;72.52;98298.14;112365;1205;95543;-70
2021/08/27 00:56:32;;;;;;;10.40;4.30;;;;;;;12.38;72.39;98303.05;112274;1205;107343;-69
2021/08/27 00:59:01;;;;;;;14.10;4.60;;;;;;;12.34;72.41;98312.05;112346;1198;97609;-70
2021/08/27 01:01:30;;;;;;;11.10;4.20;;;;;;;12.30;72.55;98309.80;112322;1195;97594;-69
2021/08/27 01:04:00;;;;;;;13.40;3.90;;;;;;;12.27;72.54;98306.00;112266;1205;111274;-70
2021/08/27 01:06:37;;;;;;;9.20;3.80;;;;;;;12.25;72.73;98299.80;112303;1204;97584;-70
2021/08/27 01:09:42;;;;;;;9.40;3.90;;;;;;;12.24;72.86;98299.66;112332;1204;107518;-70
2021/08/27 01:12:30;;;;;;;9.40;3.80;;;;;;;12.26;73.06;98295.93;112366;1205;95052;-70
2021/08/27 01:15:12;;;;;;;12.20;4.10;;;;;;;12.30;73.22;98301.83;112376;1204;97677;-70
2021/08/27 01:17:49;;;;;;;12.50;4.50;;;;;;;12.34;73.19;98303.91;112226;1205;110560;-69
2021/08/27 01:20:33;;;;;;;8.90;4.00;;;;;;;12.40;73.23;98304.68;112316;1203;95000;-70
2021/08/27 01:23:06;;;;;;;;;;;;;;;12.45;73.24;98310.26;112288;1200;107480;-69
2021/08/27 01:25:38;;;;;;;9.40;3.90;;;;;;;12.48;73.29;98312.78;112287;1195;97643;-71
2021/08/27 01:28:11;;;;;;;9.40;4.10;;;;;;;12.53;73.26;98312.02;112397;1195;97641;-70
2021/08/27 01:30:39;;;;;;;9.20;3.80;;;;;;;12.56;73.21;98308.30;112345;1204;110667;-70
2021/08/27 01:33:15;;;;;;;10.30;4.10;;;;;;;12.59;73.26;98303.39;112342;1196;96058;-71
2021/08/27 01:35:48;;;;;;;10.00;4.20;;;;;;;12.63;73.31;98301.70;112357;1204;107451;-70
2021/08/27 01:38:19;;;;;;;10.80;4.10;;;;;;;12.67;73.37;98299.10;112295;1198;97701;-70
2021/08/27 01:40:52;;;;;;;9.00;4.30;;;;;;;12.71;73.36;98299.48;112322;1198;97558;-71
2021/08/27 01:43:28;;;;;;;9.50;3.70;;;;;;;12.74;73.32;98299.33;112319;1205;110929;-70
2021/08/27 01:46:00;;;;;;;8.50;3.90;;;;;;;12.78;73.33;98300.23;112359;1204;97645;-70
2021/08/27 01:48:34;;;;;;;11.50;3.80;;;;;;;12.79;73.31;98309.13;112264;1204;108077;-69
2021/08/27 01:51:07;;;;;;;15.30;4.40;;;;;;;12.82;73.25;98309.52;112259;1195;97651;-70
2021/08/27 01:53:36;;;;;;;;;;;;;;;12.81;73.23;98311.34;112282;1195;97664;-70
2021/08/27 01:56:07;;;;;;;9.50;3.60;;;;;;;12.78;73.31;98310.54;112367;1204;111456;-70
2021/08/27 01:58:36;;;;;;;11.90;3.90;;;;;;;12.77;73.25;98313.60;112346;1204;94989;-71
2021/08/27 02:01:06;;;;;;;10.60;4.30;;;;;;;12.74;73.19;98314.81;112359;1204;107528;-69
2021/08/27 02:03:35;;;;;;;10.10;4.30;;;;;;;12.72;73.23;98315.39;112339;1196;97017;-70
2021/08/27 02:06:03;;;;;;;11.10;4.00;;;;;;;12.69;73.15;98315.43;112378;1195;97573;-70
2021/08/27 02:08:33;;;;;;;10.60;3.90;;;;;;;12.63;73.20;98315.66;112333;1204;110059;-71
2021/08/27 02:11:03;;;;;;;8.40;4.00;;;;;;;12.58;73.24;98320.09;112341;1204;97643;-71
2021/08/27 02:13:33;;;;;;;12.20;4.50;;;;;;;12.53;73.26;98319.96;112397;1200;108443;-69
2021/08/27 02:16:03;;;;;;;11.80;4.40;;;;;;;12.52;73.55;98324.31;113011;1195;97642;-70
2021/08/27 02:18:34;;;;;;;8.80;4.20;;;;;;;12.54;73.53;98324.00;112307;1205;97669;-70
2021/08/27 02:21:06;;;;;;;11.10;4.20;;;;;;;12.55;73.63;98321.92;112387;1204;111080;-70
2021/08/27 02:23:38;;;;;;;10.40;4.20;;;;;;;12.58;73.65;98320.95;112421;1195;97573;-70
2021/08/27 02:26:11;;;;;;;9.30;4.20;;;;;;;12.61;73.74;98321.91;112302;1204;107448;-70
2021/08/27 02:28:43;;;;;;;10.20;4.40;;;;;;;12.64;73.65;98326.25;112649;1196;95719;-70
2021/08/27 02:31:12;;;;;;;9.70;4.30;;;;;;;12.65;73.60;98335.31;112420;1199;95084;-72
2021/08/27 02:33:45;;;;;;;12.00;4.40;;;;;;;12.66;73.60;98332.05;112365;1205;111140;-71
2021/08/27 02:36:18;;;;;;;9.60;4.40;;;;;;;12.67;73.68;98330.38;112415;1204;97555;-70
2021/08/27 02:38:51;;;;;;;11.40;4.30;;;;;;;12.68;73.67;98328.89;112325;1204;107404;-69
2021/08/27 02:41:19;;;;;;;12.40;4.70;;;;;;;12.70;73.78;98324.11;112339;1200;97510;-71
2021/08/27 02:43:47;;;;;;;10.70;4.20;;;;;;;12.70;73.67;98317.32;113070;1195;95532;-70
2021/08/27 02:46:15;;;;;;;9.90;4.00;;;;;;;12.71;73.75;98316.35;112369;1196;111114;-69
2021/08/27 02:48:43;;;;;;;8.20;3.60;;;;;;;12.72;73.73;98312.84;112383;1204;97495;-70
2021/08/27 02:51:15;;;;;;;13.80;4.30;;;;;;;12.74;73.72;98312.73;112361;1203;107430;-71
2021/08/27 02:53:49;;;;;;;13.20;4.10;;;;;;;12.75;73.85;98311.36;112272;1199;97618;-69
2021/08/27 02:56:25;;;;;;;10.00;4.20;;;;;;;12.77;73.81;98311.70;112416;1198;97658;-70
2021/08/27 02:58:57;;;;;;;8.00;3.70;;;;;;;12.77;73.77;98312.23;112433;1202;111166;-71
2021/08/27 03:01:36;;;;;;;9.50;4.10;;;;;;;12.78;73.74;98313.77;112396;1204;97612;-69
2021/08/27 03:04:20;;;;;;;9.80;4.00;;;;;;;12.78;73.76;98318.20;112341;1204;107437;-70
2021/08/27 03:06:53;;;;;;;6.90;3.60;;;;;;;12.77;73.74;98321.63;112349;1195;97616;-71
2021/08/27 03:09:27;;;;;;;8.20;4.00;;;;;;;12.77;73.74;98325.94;112388;1195;98283;-71
2021/08/27 03:12:07;;;;;;;9.90;4.20;;;;;;;12.77;73.81;98329.61;112351;1199;111121;-69
2021/08/27 03:14:44;;;;;;;7.90;3.90;;;;;;;12.78;73.82;98333.69;113189;1196;96291;-70
2021/08/27 03:17:17;;;;;;;9.50;4.00;;;;;;;12.78;73.84;98337.59;112407;1198;107392;-70
2021/08/27 03:19:57;;;;;;;11.30;4.10;;;;;;;12.79;73.81;98345.30;112385;1204;97598;-69
2021/08/27 03:22:44;;;;;;;9.50;3.80;;;;;;;12.80;73.82;98346.67;112413;1195;97687;-69
2021/08/27 03:25:15;;;;;;;7.90;3.80;;;;;;;12.80;73.91;98353.96;112364;1203;111131;-70
2021/08/27 03:27:52;;;;;;;11.50;4.10;;;;;;;12.79;73.90;98350.79;112359;1205;96843;-70
2021/08/27 03:30:23;;;;;;;9.30;4.00;;;;;;;12.80;73.91;98354.98;112376;1205;107421;-71
2021/08/27 03:32:58;;;;;;;8.70;3.60;;;;;;;12.80;73.89;98361.41;112392;1196;95136;-70
2021/08/27 03:35:27;;;;;;;11.30;4.70;;;;;;;12.80;73.91;98364.96;112378;1200;97718;-69
2021/08/27 03:37:57;;;;;;;6.80;3.90;;;;;;;12.79;74.00;98364.67;112400;1204;111049;-69
2021/08/27 03:40:28;;;;;;;9.80;4.20;;;;;;;12.79;74.00;98358.45;112364;1204;97576;-68
2021/08/27 03:42:59;;;;;;;9.40;4.00;;;;;;;12.81;74.05;98350.84;112379;1204;107399;-70
2021/08/27 03:45:30;;;;;;;8.80;4.20;;;;;;;12.84;74.10;98345.55;112376;1197;97649;-69
2021/08/27 03:47:59;;;;;;;10.30;4.20;;;;;;;12.87;74.20;98347.42;112391;1198;97690;-69
2021/08/27 03:50:29;;;;;;;9.20;4.20;;;;;;;12.90;74.08;98345.39;112355;1203;111065;-73
2021/08/27 03:52:58;;;;;;;8.60;4.30;;;;;;;12.92;74.17;98351.03;112371;1205;96301;-71
2021/08/27 03:55:29;;;;;;;7.70;3.80;;;;;;;12.93;74.21;98350.44;112298;1205;107469;-70
2021/08/27 03:57:57;;;;;;;14.80;4.00;;;;;;;12.94;74.16;98351.02;112371;1203;95982;-69
2021/08/27 04:00:39;;;;;;;12.20;4.40;;;;;;;12.96;74.22;98352.30;112305;1205;97571;-70
2021/08/27 04:03:08;;;;;;;9.80;4.20;;;;;;;12.97;74.17;98355.95;112318;1203;111134;-69
2021/08/27 04:05:36;;;;;;;8.80;4.20;;;;;;;12.98;74.16;98354.20;112359;1204;97662;-71
2021/08/27 04:08:04;;;;;;;10.00;4.30;;;;;;;12.99;74.18;98350.02;112331;1200;107580;-71
2021/08/27 04:10:34;;;;;;;9.40;4.00;;;;;;;13.00;74.17;98346.41;112311;1204;95806;-72
2021/08/27 04:13:02;;;;;;;10.60;4.60;;;;;;;13.02;74.16;98345.31;112383;1195;97536;-70
2021/08/27 04:15:30;;;;;;;12.20;4.50;;;;;;;13.04;74.05;98347.27;112378;1204;111089;-71
2021/08/27 04:17:58;;;;;;;11.50;4.70;;;;;;;13.05;74.09;98348.60;112350;1205;97638;-74
2021/08/27 04:20:26;;;;;;;10.80;4.30;;;;;;;13.06;74.15;98341.73;112364;1204;107445;-72
2021/08/27 04:22:53;;;;;;;9.50;4.40;;;;;;;13.07;74.08;98342.89;112348;1200;97641;-71
2021/08/27 04:25:22;;;;;;;11.00;4.30;;;;;;;13.08;74.21;98342.39;112402;1200;97674;-70
2021/08/27 04:27:50;;;;;;;10.00;4.00;;;;;;;13.10;74.20;98343.48;112375;1205;111221;-74
2021/08/27 04:30:18;;;;;;;10.80;4.10;;;;;;;13.12;74.10;98347.01;112388;1196;98273;-73
2021/08/27 04:32:45;;;;;;;9.30;4.00;;;;;;;13.11;74.24;98351.20;112374;1205;107383;-69
2021/08/27 04:35:13;;;;;;;11.20;4.20;;;;;;;13.12;74.20;98356.85;112352;1197;97662;-72
2021/08/27 04:37:41;;;;;;;10.40;4.40;;;;;;;13.14;74.21;98357.41;112313;1200;97725;-70
2021/08/27 04:40:09;;;;;;;12.70;4.70;;;;;;;13.17;74.33;98357.42;112405;1204;111190;-70
2021/08/27 04:42:37;;;;;;;8.40;3.80;;;;;;;13.21;74.25;98353.17;112397;1196;97616;-72
2021/08/27 04:45:06;;;;;;;12.80;4.40;;;;;;;13.22;74.20;98352.33;112362;1205;107566;-70
2021/08/27 04:47:33;;;;;;;10.50;4.20;;;;;;;13.24;74.20;98359.23;112337;1200;97663;-70
2021/08/27 04:50:04;;;;;;;7.50;4.10;;;;;;;13.29;74.28;98361.02;112384;1204;97646;-71
2021/08/27 04:52:33;;;;;;;9.60;4.40;;;;;;;13.30;74.20;98364.56;112391;1204;111016;-67
2021/08/27 04:55:01;;;;;;;9.00;4.40;;;;;;;13.32;74.34;98367.97;112405;1205;97924;-75
2021/08/27 04:57:30;;;;;;;9.10;4.40;;;;;;;13.35;74.26;98373.23;112373;1200;107462;-72
2021/08/27 04:59:58;;;;;;;12.10;5.10;;;;;;;13.37;74.19;98378.55;112350;1198;97588;-73
2021/08/27 05:02:27;;;;;;;10.90;5.10;;;;;;;13.36;74.13;98379.67;112296;1204;97700;-74
2021/08/27 05:04:55;;;;;;;10.30;4.90;;;;;;;13.35;74.27;98380.86;112341;1205;111059;-73
2021/08/27 05:07:24;;;;;;;11.10;5.00;;;;;;;13.36;74.37;98374.50;112422;1204;95222;-73
2021/08/27 05:09:52;;;;;;;11.30;5.20;;;;;;;13.39;74.42;98372.44;112366;1204;107516;-73
2021/08/27 05:12:20;;;;;;;13.40;5.30;;;;;;;13.41;74.38;98371.26;112365;1205;97655;-73
2021/08/27 05:14:47;;;;;;;10.80;4.70;;;;;;;13.43;74.35;98375.89;112360;1195;96456;-72
2021/08/27 05:17:15;;;;;;;10.60;5.00;;;;;;;13.43;74.31;98372.83;112342;1204;111250;-72
2021/08/27 05:19:43;;;;;;;11.80;5.10;;;;;;;13.45;74.44;98377.31;112412;1204;97725;-74
2021/08/27 05:22:11;;;;;;;13.30;5.50;;;;;;;13.45;74.36;98379.59;112321;1203;107474;-73
2021/08/27 05:24:39;;;;;;;12.10;5.10;;;;;;;13.45;74.37;98389.21;112314;1200;97639;-73
2021/08/27 05:27:06;;;;;;;14.30;5.10;;;;;;;13.45;74.37;98388.50;112407;1200;95137;-73
2021/08/27 05:29:35;;;;;;;11.90;5.20;;;;;;;13.46;74.39;98381.24;112354;1204;110731;-75
2021/08/27 05:32:04;;;;;;;18.00;6.60;;;;;;;13.47;74.39;98374.20;112343;1204;97530;-76
2021/08/27 05:34:34;;;;;;;14.30;6.10;;;;;;;13.48;74.41;98376.78;112315;1204;107450;-73
2021/08/27 05:37:03;;;;;;;16.70;7.20;;;;;;;13.50;74.45;98383.33;112366;1206;97669;-73
2021/08/27 05:39:31;;;;;;;15.90;7.30;;;;;;;13.51;74.44;98385.90;112398;1204;97590;-73
2021/08/27 05:42:00;;;;;;;16.70;7.40;;;;;;;13.52;74.49;98396.54;112421;1204;111111;-73
2021/08/27 05:44:29;;;;;;;16.90;7.60;;;;;;;13.54;74.50;98398.31;112346;1206;95159;-74
2021/08/27 05:46:56;;;;;;;18.50;7.70;;;;;;;13.57;74.51;98401.55;112355;1205;107319;-71
2021/08/27 05:49:24;;;;;;;18.80;7.50;;;;;;;13.60;74.52;98400.92;112351;1204;97673;-74
2021/08/27 05:51:52;;;;;;;18.40;7.50;;;;;;;13.62;74.49;98405.76;112264;1199;97691;-73
2021/08/27 05:54:20;;;;;;;19.70;8.30;;;;;;;13.63;74.50;98411.69;112373;1205;111114;-73
2021/08/27 05:56:48;;;;;;;16.90;7.40;;;;;;;13.63;74.40;98416.48;112345;1204;97591;-73
2021/08/27 05:59:16;;;;;;;17.30;6.70;;;;;;;13.64;74.40;98414.34;112381;1204;107143;-73
2021/08/27 06:01:44;;;;;;;15.90;7.20;;;;;;;13.64;74.41;98421.22;112367;1204;97734;-73
2021/08/27 06:04:13;;;;;;;17.00;7.90;;;;;;;13.66;74.50;98423.88;112399;1198;97593;-74
2021/08/27 06:06:43;;;;;;;18.40;8.20;;;;;;;13.69;74.48;98428.62;112425;1204;111146;-73
2021/08/27 06:09:12;;;;;;;19.30;8.00;;;;;;;13.70;74.41;98427.74;112379;1204;95903;-73
2021/08/27 06:11:42;;;;;;;18.80;8.00;;;;;;;13.72;74.43;98425.09;112325;1196;107575;-73
2021/08/27 06:14:10;;;;;;;19.50;9.00;;;;;;;13.76;74.52;98419.42;112273;1198;97563;-72
2021/08/27 06:16:39;;;;;;;19.30;8.60;;;;;;;13.79;74.55;98416.63;112354;1202;97579;-72
2021/08/27 06:19:08;;;;;;;21.60;8.60;;;;;;;13.86;74.58;98415.73;112303;1204;110106;-74
2021/08/27 06:21:39;;;;;;;18.20;8.80;;;;;;;13.90;74.53;98415.72;112305;1204;95031;-75
2021/08/27 06:24:07;;;;;;;20.50;9.50;;;;;;;13.94;74.52;98421.44;112340;1203;107500;-73
2021/08/27 06:26:36;;;;;;;21.60;10.20;;;;;;;13.96;74.53;98428.52;112373;1202;96044;-75
2021/08/27 06:29:05;;;;;;;24.50;11.10;;;;;;;13.96;74.48;98432.57;112358;1200;97668;-72
2021/08/27 06:31:33;;;;;;;21.50;10.60;;;;;;;13.96;74.42;98429.95;112332;1198;111090;-73
2021/08/27 06:34:03;;;;;;;21.70;10.40;;;;;;;13.95;74.38;98427.31;112381;1203;97676;-73
2021/08/27 06:36:31;;;;;;;21.50;11.20;;;;;;;13.95;74.50;98423.63;112351;1203;108283;-70
2021/08/27 06:38:59;;;;;;;24.80;12.00;;;;;;;13.95;74.48;98426.11;112379;1195;98005;-73
2021/08/27 06:41:27;;;;;;;23.70;11.90;;;;;;;13.96;74.54;98427.80;112355;1195;97626;-70
2021/08/27 06:43:56;;;;;;;26.80;12.10;;;;;;;14.00;74.53;98435.11;112305;1204;111189;-74
2021/08/27 06:46:26;;;;;;;24.20;11.70;;;;;;;14.04;74.47;98439.02;112392;1203;97578;-74
2021/08/27 06:48:55;;;;;;;24.00;12.60;;;;;;;14.07;74.51;98434.02;112358;1204;107441;-74
2021/08/27 06:51:23;;;;;;;20.60;10.70;;;;;;;14.11;74.48;98435.46;112314;1196;95051;-75
2021/08/27 06:53:53;;;;;;;23.60;11.30;;;;;;;14.18;74.47;98431.61;112330;1204;97719;-73
2021/08/27 06:56:22;;;;;;;21.80;11.10;;;;;;;14.28;74.44;98427.56;112289;1204;111147;-76
2021/08/27 06:58:50;;;;;;;22.90;10.90;;;;;;;14.40;74.35;98424.78;112311;1204;95068;-76
2021/08/27 07:01:18;;;;;;;22.10;11.00;;;;;;;14.54;74.29;98429.82;112346;1203;107553;-75
2021/08/27 07:03:47;;;;;;;18.90;9.20;;;;;;;14.71;74.10;98434.82;112380;1195;95175;-76
2021/08/27 07:06:16;;;;;;;21.40;10.10;;;;;;;14.84;74.15;98434.00;112349;1196;97635;-74
2021/08/27 07:08:45;;;;;;;20.80;9.80;;;;;;;14.95;74.11;98432.71;112348;1203;111036;-75
2021/08/27 07:11:15;;;;;;;18.60;8.80;;;;;;;15.01;74.20;98431.42;112338;1203;95014;-75
2021/08/27 07:13:46;;;;;;;19.90;8.90;;;;;;;15.08;74.15;98427.89;112155;1204;107353;-73
2021/08/27 07:16:14;;;;;;;16.70;7.60;;;;;;;15.17;74.21;98427.48;112231;1204;97703;-73
2021/08/27 07:18:43;;;;;;;17.30;7.60;;;;;;;15.27;74.22;98430.02;112273;1198;97578;-74
2021/08/27 07:21:13;;;;;;;17.70;8.70;;;;;;;15.39;73.87;98444.14;112317;1203;111134;-74
2021/08/27 07:23:41;;;;;;;22.10;11.20;;;;;;;15.46;73.92;98449.89;112265;1196;95029;-72
2021/08/27 07:26:09;;;;;;;17.70;7.80;;;;;;;15.56;73.84;98454.42;112320;1204;107457;-73
2021/08/27 07:28:37;;;;;;;16.20;7.40;;;;;;;15.63;73.87;98459.23;112301;1202;97646;-74
2021/08/27 07:31:05;;;;;;;19.20;8.00;;;;;;;15.65;73.74;98462.52;112303;1196;98055;-73
2021/08/27 07:33:33;;;;;;;18.90;8.90;;;;;;;15.65;73.80;98462.83;112300;1196;111233;-73
2021/08/27 07:36:03;;;;;;;20.50;10.30;;;;;;;15.66;73.94;98460.39;112336;1200;97606;-73
2021/08/27 07:38:31;;;;;;;18.00;7.90;;;;;;;15.65;73.81;98463.69;112273;1200;107558;-75
2021/08/27 07:40:59;;;;;;;18.20;7.50;;;;;;;15.63;73.83;98464.08;112311;1204;95201;-74
2021/08/27 07:43:27;;;;;;;17.20;8.40;;;;;;;15.62;73.78;98464.14;112269;1204;97666;-72
2021/08/27 07:45:57;;;;;;;16.30;7.40;;;;;;;15.62;73.69;98460.45;112305;1204;111146;-73
2021/08/27 07:48:28;;;;;;;18.10;8.90;;;;;;;15.65;73.53;98451.36;112310;1203;95175;-73
2021/08/27 07:50:55;;;;;;;19.70;9.60;;;;;;;15.69;73.69;98445.58;112332;1202;107461;-73
2021/08/27 07:53:23;;;;;;;24.70;11.90;;;;;;;15.70;73.60;98448.13;112253;1198;97562;-72
2021/08/27 07:55:51;;;;;;;21.60;11.20;;;;;;;15.80;73.50;98456.59;112297;1204;98308;-73
2021/08/27 07:58:22;;;;;;;20.20;9.20;;;;;;;15.87;73.52;98461.48;112238;1204;111142;-73
2021/08/27 08:00:50;;;;;;;22.50;10.60;;;;;;;15.91;73.53;98468.44;112265;1196;98278;-73
2021/08/27 08:03:19;;;;;;;21.10;11.00;;;;;;;15.94;73.34;98477.23;112255;1204;107394;-74
2021/08/27 08:05:47;;;;;;;22.30;11.00;;;;;;;15.93;73.51;98486.21;112327;1203;97704;-74
2021/08/27 08:08:15;;;;;;;19.50;9.30;;;;;;;15.92;73.50;98489.02;112238;1197;97756;-75
2021/08/27 08:10:42;;;;;;;17.20;8.70;;;;;;;15.90;73.46;98488.17;112260;1204;110942;-75
2021/08/27 08:13:10;;;;;;;17.50;7.20;;;;;;;15.87;73.26;98489.54;112338;1203;97608;-74
2021/08/27 08:15:38;;;;;;;15.70;6.90;;;;;;;15.82;73.17;98483.05;112294;1204;108309;-73
2021/08/27 08:18:06;;;;;;;15.70;7.20;;;;;;;15.76;73.14;98478.48;112293;1195;97582;-74
2021/08/27 08:20:34;;;;;;;19.80;8.20;;;;;;;15.70;73.10;98476.45;112362;1195;97636;-74
2021/08/27 08:23:03;;;;;;;16.50;7.20;;;;;;;15.66;73.14;98489.02;112243;1204;111299;-74
2021/08/27 08:25:30;;;;;;;18.20;8.80;;;;;;;15.63;73.12;98490.16;112284;1204;97566;-74
2021/08/27 08:27:58;;;;;;;19.10;8.70;;;;;;;15.62;73.11;98493.86;112273;1204;107439;-73
2021/08/27 08:30:27;;;;;;;20.70;8.40;;;;;;;15.65;73.16;98491.44;112257;1198;97615;-73
2021/08/27 08:32:55;;;;;;;20.40;9.00;;;;;;;15.70;73.11;98486.80;112244;1203;97665;-74
2021/08/27 08:35:24;;;;;;;18.80;8.40;;;;;;;15.74;72.96;98477.80;112354;1203;111095;-75
2021/08/27 08:37:51;;;;;;;17.90;8.70;;;;;;;15.74;72.91;98473.45;112246;1202;97681;-74
2021/08/27 08:40:19;;;;;;;19.40;9.10;;;;;;;15.78;72.97;98471.83;112236;1197;107497;-73
2021/08/27 08:42:49;;;;;;;17.90;8.40;;;;;;;15.83;73.01;98472.06;112265;1204;97682;-74
2021/08/27 08:45:18;;;;;;;22.40;9.80;;;;;;;15.84;72.86;98474.52;112239;1196;97606;-76
2021/08/27 08:47:48;;;;;;;22.10;11.80;;;;;;;15.86;72.87;98469.55;112320;1203;111422;-74
2021/08/27 08:50:18;;;;;;;19.40;9.50;;;;;;;15.92;72.89;98463.37;112279;1202;97529;-75
2021/08/27 08:52:49;;;;;;;20.30;9.40;;;;;;;15.98;72.85;98466.92;112275;1204;107400;-74
2021/08/27 08:55:19;;;;;;;17.70;9.10;;;;;;;16.03;72.92;98470.52;112267;1196;95949;-74
2021/08/27 08:57:47;;;;;;;19.40;8.80;;;;;;;16.07;72.72;98473.51;112267;1196;97646;-73
2021/08/27 09:00:15;;;;;;;19.10;9.10;;;;;;;16.08;72.77;98475.36;112248;1203;111105;-74
2021/08/27 09:02:43;;;;;;;20.00;9.10;;;;;;;16.09;72.65;98479.62;112289;1196;97684;-73
2021/08/27 09:05:12;;;;;;;20.10;9.10;;;;;;;16.11;72.51;98480.85;112395;1203;107375;-73
2021/08/27 09:07:41;;;;;;;19.40;8.90;;;;;;;16.16;72.48;98482.90;112242;1197;97549;-74
2021/08/27 09:10:17;;;;;;;19.20;8.70;;;;;;;16.21;72.60;98484.21;112369;1203;97613;-73
2021/08/27 09:12:47;;;;;;;20.10;9.30;;;;;;;16.24;72.46;98486.06;112224;1203;110913;-74
2021/08/27 09:15:20;;;;;;;18.10;8.70;;;;;;;16.24;72.30;98483.95;112376;1203;97641;-73
2021/08/27 09:17:51;;;;;;;18.50;8.30;;;;;;;16.26;72.27;98476.73;112301;1204;107445;-74
2021/08/27 09:20:24;;;;;;;16.70;7.30;;;;;;;16.32;72.23;98469.65;112262;1204;96951;-74
2021/08/27 09:22:55;;;;;;;16.90;7.90;;;;;;;16.39;72.21;98466.02;112254;1204;95030;-73
2021/08/27 09:25:33;;;;;;;17.30;8.30;;;;;;;16.44;72.14;98469.98;112256;1204;111116;-73
2021/08/27 09:28:23;;;;;;;17.40;7.80;;;;;;;16.48;72.29;98479.06;112283;1204;97605;-74
2021/08/27 09:30:53;;;;;;;16.40;7.20;;;;;;;16.58;71.94;98475.84;112242;1204;107246;-75
2021/08/27 09:33:29;;;;;;;17.10;7.80;;;;;;;16.75;71.84;98477.02;112235;1204;96894;-75
2021/08/27 09:36:07;;;;;;;15.70;7.50;;;;;;;16.90;71.76;98477.45;112286;1197;94991;-77
2021/08/27 09:38:40;;;;;;;17.70;7.60;;;;;;;16.99;71.83;98476.52;112235;1204;111107;-75
2021/08/27 09:41:12;;;;;;;14.70;6.50;;;;;;;17.15;71.70;98474.79;112214;1204;94969;-74
2021/08/27 09:43:44;;;;;;;14.90;7.30;;;;;;;17.29;71.74;98472.23;112230;1204;106603;-73
2021/08/27 09:46:42;;;;;;;15.90;6.80;;;;;;;17.30;71.62;98475.63;112274;1204;97589;-73
2021/08/27 09:49:28;;;;;;;14.70;6.20;;;;;;;17.36;71.59;98474.81;112290;1195;97640;-73
2021/08/27 09:52:01;;;;;;;15.00;6.60;;;;;;;17.46;71.46;98469.17;112220;1195;111163;-73
2021/08/27 09:54:33;;;;;;;15.50;6.70;;;;;;;17.56;71.34;98469.36;112267;1204;97649;-73
2021/08/27 09:57:04;;;;;;;15.20;6.80;;;;;;;17.62;71.34;98471.77;112257;1203;107410;-74
2021/08/27 09:59:50;;;;;;;14.70;6.50;;;;;;;17.74;71.10;98473.65;112212;1203;95749;-73
2021/08/27 10:02:31;;;;;;;13.80;6.60;;;;;;;17.91;71.02;98473.37;112258;1196;97671;-75
2021/08/27 10:05:02;;;;;;;13.10;6.00;;;;;;;18.02;70.90;98470.70;112260;1197;111234;-73
2021/08/27 10:07:34;;;;;;;16.80;6.90;;;;;;;18.20;71.03;98469.81;112245;1204;97649;-74
2021/08/27 10:10:07;;;;;;;11.90;5.50;;;;;;;18.38;70.81;98471.84;112385;1198;107468;-73
2021/08/27 10:12:40;;;;;;;11.50;5.30;;;;;;;18.52;70.76;98470.33;112259;1196;97552;-75
2021/08/27 10:15:11;;;;;;;14.50;6.50;;;;;;;18.55;70.70;98467.95;112266;1204;98100;-73
2021/08/27 10:17:41;;;;;;;14.20;6.30;;;;;;;18.52;70.40;98465.48;112283;1203;111173;-74
2021/08/27 10:20:11;;;;;;;12.10;6.10;;;;;;;18.59;70.52;98463.94;112240;1204;97680;-73
2021/08/27 10:22:41;;;;;;;15.80;6.30;;;;;;;18.68;70.44;98459.98;112252;1203;107393;-74
2021/08/27 10:25:13;;;;;;;13.90;5.90;;;;;;;18.73;70.10;98462.92;112256;1197;98007;-74
2021/08/27 10:27:47;;;;;;;12.60;6.20;;;;;;;18.76;70.03;98461.02;112300;1198;98288;-73
2021/08/27 10:30:16;;;;;;;10.10;5.20;;;;;;;18.80;70.07;98463.80;112216;1196;111074;-73
2021/08/27 10:32:44;;;;;;;14.10;6.10;;;;;;;18.83;69.98;98466.16;112240;1203;94963;-74
2021/08/27 10:35:24;;;;;;;15.60;6.90;;;;;;;18.86;69.97;98467.30;112262;1204;107449;-74
2021/08/27 10:37:54;;;;;;;14.80;6.00;;;;;;;18.86;69.94;98464.07;112256;1196;97656;-74
2021/08/27 10:40:22;;;;;;;12.90;6.00;;;;;;;18.77;69.66;98471.48;112178;1197;97586;-74
2021/08/27 10:43:00;;;;;;;12.50;5.90;;;;;;;18.71;69.63;98473.63;112256;1203;111122;-73
2021/08/27 10:45:30;;;;;;;12.40;5.40;;;;;;;18.69;69.58;98466.20;112270;1203;97700;-73
2021/08/27 10:48:15;;;;;;;11.50;5.10;;;;;;;18.69;69.50;98461.52;112254;1203;108075;-74
2021/08/27 10:50:47;;;;;;;8.70;4.70;;;;;;;18.63;69.38;98465.63;112236;1196;97616;-75
2021/08/27 10:53:35;;;;;;;10.90;5.30;;;;;;;18.53;69.30;98473.73;112222;1196;98022;-75
2021/08/27 10:56:08;;;;;;;11.10;4.60;;;;;;;18.43;69.03;98476.19;112264;1203;111622;-73
2021/08/27 10:58:51;;;;;;;10.30;4.70;;;;;;;18.35;69.17;98476.87;112243;1203;98106;-75
2021/08/27 11:01:32;;;;;;;9.60;4.70;;;;;;;18.25;68.92;98478.20;112238;1203;107445;-73
2021/08/27 11:04:14;;;;;;;10.50;5.20;;;;;;;18.20;68.98;98477.52;112192;1195;95200;-74
2021/08/27 11:07:07;;;;;;;11.50;5.30;;;;;;;18.18;68.80;98471.84;112255;1197;96010;-76
2021/08/27 11:09:37;;;;;;;9.80;4.60;;;;;;;18.23;68.90;98473.04;112204;1196;111992;-75
2021/08/27 11:12:04;;;;;;;10.70;4.90;;;;;;;18.26;68.83;98470.15;112319;1203;97560;-74
2021/08/27 11:14:32;;;;;;;8.50;4.10;;;;;;;18.32;68.82;98465.08;112297;1198;105986;-75
2021/08/27 11:17:06;;;;;;;12.00;5.00;;;;;;;18.35;68.58;98465.59;112162;1198;97653;-73
2021/08/27 11:19:40;;;;;;;11.70;4.90;;;;;;;18.36;68.58;98464.88;112218;1196;97700;-75
2021/08/27 11:22:11;;;;;;;8.40;4.30;;;;;;;18.36;68.41;98465.79;112191;1203;111039;-74
2021/08/27 11:24:41;;;;;;;12.50;4.60;;;;;;;18.35;68.21;98464.55;112304;1203;97591;-74
2021/08/27 11:27:20;;;;;;;10.10;4.40;;;;;;;18.31;68.23;98464.45;112247;1203;106882;-75
2021/08/27 11:29:50;;;;;;;9.90;4.60;;;;;;;18.26;68.18;98462.85;112301;1203;98005;-76
2021/08/27 11:32:22;;;;;;;9.80;4.80;;;;;;;18.29;68.03;98457.75;112289;1203;97670;-75